Time;durP1;ratioP1;P1;durP2;ratioP2;P2;SDS_P1;SDS_P2;PMS_P1;PMS_P2;Temp;Humidity;BMP_temperature;BMP_pressure;BME280_temperature;BME280_humidity;BME280_pressure;Samples;Min_cycle;Max_cycle;Signal;HPM_P1;HPM_P2
2022/11/19 00:01:29;;;;;;;;;;;;;;;8.27;100.00;98440.31;10269987;23;19927;-78
2022/11/19 00:05:31;;;;;;;;;;;;;;;8.26;100.00;98448.91;10303057;23;19934;-77
2022/11/19 00:09:32;;;;;;;;;;;;;;;8.23;100.00;98451.53;10325147;23;19976;-77
2022/11/19 00:13:34;;;;;;;;;;;;;;;8.19;100.00;98448.97;10276338;23;19919;-78
2022/11/19 00:17:35;;;;;;;;;;;;;;;8.18;100.00;98452.44;10301694;23;19970;-78
2022/11/19 00:21:36;;;;;;;;;;;;;;;8.18;100.00;98449.84;10301945;23;19923;-78
2022/11/19 00:25:38;;;;;;;;;;;;;;;8.19;100.00;98455.88;10277368;23;19946;-78
2022/11/19 00:29:39;;;;;;;;;;;;;;;8.21;100.00;98455.84;10329136;23;19923;-78
2022/11/19 00:33:41;;;;;;;;;;;;;;;8.19;100.00;98443.81;10277545;22;20374;-77
2022/11/19 00:37:42;;;;;;;;;;;;;;;8.19;100.00;98441.22;10251837;23;19927;-77
2022/11/19 00:41:43;;;;;;;;;;;;;;;8.23;100.00;98443.75;10254696;23;20371;-77
2022/11/19 00:45:45;;;;;;;;;;;;;;;8.18;100.00;98443.81;10248977;23;19920;-78
2022/11/19 00:49:46;;;;;;;;;;;;;;;8.18;100.00;98434.34;10282485;23;19924;-77
2022/11/19 00:53:48;;;;;;;;;;;;;;;8.22;100.00;98432.56;10255696;23;19928;-78
2022/11/19 00:57:49;;;;;;;;;;;;;;;8.22;100.00;98444.63;10255327;23;19990;-79
2022/11/19 01:01:51;;;;;;;;;;;;;;;8.22;100.00;98449.81;10231044;23;19955;-77
2022/11/19 01:05:52;;;;;;;;;;;;;;;8.22;100.00;98450.66;10253955;23;20321;-77
2022/11/19 01:09:53;;;;;;;;;;;;;;;8.25;100.00;98452.38;10228028;23;19923;-77
2022/11/19 01:13:56;;;;;;;;;;;;;;;8.23;100.00;98459.28;10252145;23;20286;-77
2022/11/19 01:17:57;;;;;;;;;;;;;;;8.23;100.00;98459.28;10271189;23;19928;-77
2022/11/19 01:21:58;;;;;;;;;;;;;;;8.25;100.00;98468.72;10276997;23;19982;-77
2022/11/19 01:26:00;;;;;;;;;;;;;;;8.27;100.00;98464.44;10251844;23;19974;-77
2022/11/19 01:30:02;;;;;;;;;;;;;;;8.27;100.00;98468.75;10250185;23;19923;-77
2022/11/19 01:34:04;;;;;;;;;;;;;;;8.29;100.00;98473.03;10226063;23;19927;-77
2022/11/19 01:38:05;;;;;;;;;;;;;;;8.31;100.00;98478.19;10276525;23;20512;-77
2022/11/19 01:42:48;;;;;;;;;;;;;;;8.31;100.00;98475.59;10252527;23;20007;-77
2022/11/19 01:46:38;;;;;;;;;;;;;;;8.31;100.00;98481.63;10269774;23;19920;-79
2022/11/19 01:50:51;;;;;;;;;;;;;;;8.25;100.00;98489.41;10226552;23;19988;-77
2022/11/19 01:54:54;;;;;;;;;;;;;;;8.24;100.00;98485.13;10227111;23;20298;-78
2022/11/19 01:59:01;;;;;;;;;;;;;;;8.26;100.00;98475.66;10251399;23;19920;-78
2022/11/19 02:03:02;;;;;;;;;;;;;;;8.24;100.00;98472.19;10220129;23;20254;-77
2022/11/19 02:07:05;;;;;;;;;;;;;;;8.22;100.00;98478.25;10276602;23;20612;-78
2022/11/19 02:11:13;;;;;;;;;;;;;;;8.22;100.00;98473.09;10227660;23;19927;-78
2022/11/19 02:15:20;;;;;;;;;;;;;;;8.16;100.00;98477.44;10220221;23;19988;-77
2022/11/19 02:19:51;;;;;;;;;;;;;;;8.16;100.00;98481.78;10226753;23;19924;-78
2022/11/19 02:24:19;;;;;;;;;;;;;;;8.18;100.00;98473.13;10251576;23;20026;-77
2022/11/19 02:28:24;;;;;;;;;;;;;;;8.21;100.00;98474.81;10251547;23;20366;-78
2022/11/19 02:32:33;;;;;;;;;;;;;;;8.22;100.00;98481.69;10242762;23;20580;-78
2022/11/19 02:36:41;;;;;;;;;;;;;;;8.25;100.00;98471.31;10224890;23;19928;-77
2022/11/19 02:40:47;;;;;;;;;;;;;;;8.26;100.00;98479.94;10227164;23;20011;-77
2022/11/19 02:45:00;;;;;;;;;;;;;;;8.28;100.00;98479.06;10253289;23;19959;-77
2022/11/19 02:49:03;;;;;;;;;;;;;;;8.30;100.00;98479.06;10252079;23;19924;-77
2022/11/19 02:53:04;;;;;;;;;;;;;;;8.29;100.00;98485.97;10254320;23;19982;-78
2022/11/19 02:57:08;;;;;;;;;;;;;;;8.29;100.00;98485.97;10281570;23;19960;-78
2022/11/19 03:05:32;;;;;;;;;;;;;;;8.31;100.00;98488.53;10259071;23;20519;-78
2022/11/19 03:09:36;;;;;;;;;;;;;;;8.30;100.00;98481.66;10258680;23;19978;-78
2022/11/19 03:18:09;;;;;;;;;;;;;;;8.25;99.92;98481.66;10250738;23;20304;-78
2022/11/19 03:22:10;;;;;;;;;;;;;;;8.23;99.58;98472.22;10259575;23;19924;-78
2022/11/19 03:26:32;;;;;;;;;;;;;;;8.22;99.15;98484.28;10259242;23;20375;-78
2022/11/19 03:30:35;;;;;;;;;;;;;;;8.18;98.11;98485.19;10251387;23;20006;-78
2022/11/19 03:34:38;;;;;;;;;;;;;;;8.14;97.28;98489.53;10259131;23;19927;-78
2022/11/19 03:38:42;;;;;;;;;;;;;;;8.06;96.17;98491.31;10285570;23;19998;-78
2022/11/19 03:42:46;;;;;;;;;;;;;;;8.06;95.98;98483.56;10259676;23;19950;-78
2022/11/19 03:46:51;;;;;;;;;;;;;;;8.01;94.68;98490.50;10251566;23;19923;-78
2022/11/19 03:50:55;;;;;;;;;;;;;;;7.99;94.67;98499.16;10258635;23;19920;-78
2022/11/19 03:54:56;;;;;;;;;;;;;;;8.00;94.55;98500.88;10286038;23;19920;-78
2022/11/19 03:58:58;;;;;;;;;;;;;;;7.94;94.47;98496.63;10234063;23;19963;-78
2022/11/19 04:03:00;;;;;;;;;;;;;;;7.94;94.29;98509.53;10225257;23;20504;-78
2022/11/19 04:07:30;;;;;;;;;;;;;;;7.92;93.55;98505.25;10231549;23;19959;-77
2022/11/19 04:11:32;;;;;;;;;;;;;;;7.86;92.38;98512.16;10203882;23;20363;-78
2022/11/19 04:15:33;;;;;;;;;;;;;;;7.83;91.65;98514.78;10245776;23;19955;-77
2022/11/19 04:19:35;;;;;;;;;;;;;;;7.84;92.54;98519.09;10255020;23;19970;-78
2022/11/19 04:23:37;;;;;;;;;;;;;;;7.82;92.25;98515.66;10254076;23;20383;-77
2022/11/19 04:27:38;;;;;;;;;;;;;;;7.85;93.28;98519.94;10228677;23;20002;-77
2022/11/19 04:31:40;;;;;;;;;;;;;;;7.84;93.05;98518.22;10246415;23;20707;-77
2022/11/19 04:35:43;;;;;;;;;;;;;;;7.88;94.31;98520.75;10202397;23;19975;-77
2022/11/19 04:39:44;;;;;;;;;;;;;;;7.87;94.24;98521.63;10204354;23;20498;-77
2022/11/19 04:43:46;;;;;;;;;;;;;;;7.86;94.96;98524.25;10203014;23;20050;-77
2022/11/19 04:47:48;;;;;;;;;;;;;;;7.87;95.03;98523.38;10220845;23;20303;-77
2022/11/19 04:51:49;;;;;;;;;;;;;;;7.83;94.82;98519.09;10227198;23;19928;-77
2022/11/19 04:55:50;;;;;;;;;;;;;;;7.75;94.98;98524.34;10252869;23;20171;-77
2022/11/19 04:59:52;;;;;;;;;;;;;;;7.66;94.73;98514.03;10227081;23;19960;-77
2022/11/19 05:03:53;;;;;;;;;;;;;;;7.53;94.60;98517.56;10220004;23;19920;-77
2022/11/19 05:07:54;;;;;;;;;;;;;;;7.38;94.39;98523.72;10202491;23;19967;-77
2022/11/19 05:11:56;;;;;;;;;;;;;;;7.20;94.60;98518.66;10227366;23;19947;-77
2022/11/19 05:15:57;;;;;;;;;;;;;;;7.03;94.97;98523.88;10195085;23;20345;-77
2022/11/19 05:19:59;;;;;;;;;;;;;;;6.94;95.74;98518.75;10202231;23;20086;-78
2022/11/19 05:24:00;;;;;;;;;;;;;;;6.75;95.38;98519.69;10227011;23;19920;-77
2022/11/19 05:28:01;;;;;;;;;;;;;;;6.66;95.52;98515.41;10201845;23;20260;-78
2022/11/19 05:32:03;;;;;;;;;;;;;;;6.56;96.29;98524.03;10221170;23;19974;-77
2022/11/19 05:36:04;;;;;;;;;;;;;;;6.45;96.66;98529.19;10226327;23;19924;-77
2022/11/19 05:40:07;;;;;;;;;;;;;;;6.46;97.71;98536.06;10228477;23;20665;-77
2022/11/19 05:44:08;;;;;;;;;;;;;;;6.49;98.31;98530.06;10228125;23;19985;-78
2022/11/19 05:48:09;;;;;;;;;;;;;;;6.48;98.72;98530.94;10244642;23;19946;-77
2022/11/19 05:52:11;;;;;;;;;;;;;;;6.48;98.96;98541.25;10226840;23;20813;-77
2022/11/19 05:56:12;;;;;;;;;;;;;;;6.47;99.25;98536.97;10202736;23;19924;-77
2022/11/19 06:00:15;;;;;;;;;;;;;;;6.43;98.85;98532.66;10194404;23;20451;-77
2022/11/19 06:04:16;;;;;;;;;;;;;;;6.41;99.48;98537.81;10224883;23;19947;-77
2022/11/19 06:08:18;;;;;;;;;;;;;;;6.37;99.67;98541.25;10200051;23;19943;-77
2022/11/19 06:12:19;;;;;;;;;;;;;;;6.39;100.00;98536.97;10225950;23;20303;-77
2022/11/19 06:16:21;;;;;;;;;;;;;;;6.43;100.00;98545.53;10192778;23;20003;-77
2022/11/19 06:20:22;;;;;;;;;;;;;;;6.46;100.00;98548.09;10225167;23;20003;-77
2022/11/19 06:24:23;;;;;;;;;;;;;;;6.49;100.00;98549.00;10225509;23;19950;-77
2022/11/19 06:28:25;;;;;;;;;;;;;;;6.50;100.00;98547.25;10222710;23;19963;-77
2022/11/19 06:32:26;;;;;;;;;;;;;;;6.49;100.00;98553.28;10219263;23;19952;-77
2022/11/19 06:36:28;;;;;;;;;;;;;;;6.51;100.00;98548.97;10201115;23;19956;-77
2022/11/19 06:40:37;;;;;;;;;;;;;;;6.57;100.00;98559.28;10225192;23;19923;-78
2022/11/19 06:44:38;;;;;;;;;;;;;;;6.62;100.00;98566.13;10201899;23;19932;-78
2022/11/19 06:48:40;;;;;;;;;;;;;;;6.66;100.00;98567.88;10219141;23;19920;-78
2022/11/19 06:52:42;;;;;;;;;;;;;;;6.67;100.00;98576.47;10226822;23;20000;-79
2022/11/19 06:56:43;;;;;;;;;;;;;;;6.69;100.00;98574.75;10201892;23;19963;-79
2022/11/19 07:00:45;;;;;;;;;;;;;;;6.71;100.00;98575.59;10193217;23;19982;-78
2022/11/19 07:04:47;;;;;;;;;;;;;;;6.75;100.00;98581.59;10202144;23;20370;-79
2022/11/19 07:08:48;;;;;;;;;;;;;;;6.81;100.00;98589.31;10226026;23;19928;-79
2022/11/19 07:12:50;;;;;;;;;;;;;;;6.79;100.00;98594.47;10230270;23;20495;-80
2022/11/19 07:16:51;;;;;;;;;;;;;;;6.83;100.00;98596.22;10221135;23;19920;-78
2022/11/19 07:20:53;;;;;;;;;;;;;;;6.93;100.00;98609.94;10201521;23;19956;-78
2022/11/19 07:24:55;;;;;;;;;;;;;;;6.99;100.00;98609.91;10203341;23;20135;-79
2022/11/19 07:28:58;;;;;;;;;;;;;;;7.05;100.00;98615.06;10228385;23;20460;-79
2022/11/19 07:33:05;;;;;;;;;;;;;;;7.09;100.00;98615.91;10200260;23;19920;-79
2022/11/19 07:37:06;;;;;;;;;;;;;;;7.15;100.00;98610.72;10254991;23;19951;-79
2022/11/19 07:45:28;;;;;;;;;;;;;;;7.24;100.00;98629.63;10246804;23;19935;-78
2022/11/19 07:49:29;;;;;;;;;;;;;;;7.30;100.00;98633.91;10256013;23;19924;-79
2022/11/19 07:53:30;;;;;;;;;;;;;;;7.35;100.00;98636.47;10255986;23;19935;-79
2022/11/19 07:57:32;;;;;;;;;;;;;;;7.39;99.54;98641.63;10225297;23;20569;-79
2022/11/19 08:01:34;;;;;;;;;;;;;;;7.40;99.04;98642.50;10270135;23;19928;-79
2022/11/19 08:05:37;;;;;;;;;;;;;;;7.45;98.38;98651.06;10280714;23;19927;-79
2022/11/19 08:09:38;;;;;;;;;;;;;;;7.49;98.34;98650.19;10256748;23;19951;-80
2022/11/19 08:13:40;;;;;;;;;;;;;;;7.53;98.02;98655.34;10231307;23;20196;-80
2022/11/19 08:22:01;;;;;;;;;;;;;;;7.63;97.52;98670.81;10280919;23;20135;-79
2022/11/19 08:26:05;;;;;;;;;;;;;;;7.65;97.65;98674.25;10281174;23;20333;-79
2022/11/19 08:30:07;;;;;;;;;;;;;;;7.66;97.02;98669.06;10222844;23;19934;-79
2022/11/19 08:34:08;;;;;;;;;;;;;;;7.69;97.17;98665.59;10229701;23;20548;-80
2022/11/19 08:38:10;;;;;;;;;;;;;;;7.74;97.38;98659.56;10254710;23;19959;-80
2022/11/19 08:46:31;;;;;;;;;;;;;;;7.77;96.53;98663.84;10255882;23;20292;-79
2022/11/19 08:50:33;;;;;;;;;;;;;;;7.84;96.72;98662.94;10253975;23;19934;-80
2022/11/19 08:54:34;;;;;;;;;;;;;;;7.93;96.10;98659.47;10255069;23;19920;-80
2022/11/19 08:58:35;;;;;;;;;;;;;;;8.00;95.85;98667.16;10253184;23;20208;-80
2022/11/19 09:02:37;;;;;;;;;;;;;;;8.11;96.63;98667.97;10219305;23;19986;-80
2022/11/19 09:06:38;;;;;;;;;;;;;;;8.23;96.03;98667.00;10252046;23;20412;-80
2022/11/19 09:10:40;;;;;;;;;;;;;;;8.36;95.39;98671.28;10247704;23;20018;-80
2022/11/19 09:14:42;;;;;;;;;;;;;;;8.39;93.90;98681.59;10252934;23;19927;-80
2022/11/19 09:18:43;;;;;;;;;;;;;;;8.50;93.20;98675.50;10244789;23;20002;-80
2022/11/19 09:22:46;;;;;;;;;;;;;;;8.58;92.97;98684.03;10252779;23;19924;-80
2022/11/19 09:26:47;;;;;;;;;;;;;;;8.68;92.49;98683.97;10280319;23;19955;-80
2022/11/19 09:30:54;;;;;;;;;;;;;;;8.79;93.19;98694.22;10247966;23;20393;-82
2022/11/19 09:34:55;;;;;;;;;;;;;;;8.84;93.11;98695.06;10251376;23;20643;-81
2022/11/19 09:38:57;;;;;;;;;;;;;;;8.87;91.66;98695.03;10252012;23;19931;-81
2022/11/19 09:43:00;;;;;;;;;;;;;;;8.92;91.07;98700.16;10223126;23;19920;-79
2022/11/19 09:47:20;;;;;;;;;;;;;;;8.89;89.35;98705.38;10220683;23;19932;-82
2022/11/19 09:51:27;;;;;;;;;;;;;;;8.93;88.13;98712.22;10278610;23;19963;-82
2022/11/19 09:55:31;;;;;;;;;;;;;;;8.96;87.67;98710.47;10252803;23;19923;-81
2022/11/19 09:59:36;;;;;;;;;;;;;;;9.03;89.13;98703.53;10227804;23;19959;-81
2022/11/19 10:03:39;;;;;;;;;;;;;;;9.07;87.67;98710.38;10221545;23;19932;-82
2022/11/19 10:07:40;;;;;;;;;;;;;;;9.12;88.46;98710.31;10230946;23;19999;-80
2022/11/19 10:12:07;;;;;;;;;;;;;;;9.14;87.02;98696.47;10254858;23;19924;-81
2022/11/19 10:16:15;;;;;;;;;;;;;;;9.12;86.92;98694.78;10222925;23;19964;-82
2022/11/19 10:20:42;;;;;;;;;;;;;;;9.15;87.86;98705.97;10230386;23;19985;-81
2022/11/19 10:24:49;;;;;;;;;;;;;;;9.12;86.75;98699.97;10282599;23;19980;-82
2022/11/19 10:28:55;;;;;;;;;;;;;;;9.07;86.96;98700.88;10229469;23;19982;-80
2022/11/19 10:33:00;;;;;;;;;;;;;;;9.03;86.92;98701.78;10221012;23;19935;-82
2022/11/19 10:37:08;;;;;;;;;;;;;;;9.05;87.86;98701.78;10209619;23;20464;-83
2022/11/19 10:41:10;;;;;;;;;;;;;;;9.03;87.53;98706.97;10233593;23;20003;-81
2022/11/19 10:45:15;;;;;;;;;;;;;;;9.08;87.72;98712.09;10224008;23;20099;-81
2022/11/19 10:49:16;;;;;;;;;;;;;;;9.08;87.14;98704.31;10205693;23;19965;-82
2022/11/19 10:53:24;;;;;;;;;;;;;;;9.15;87.95;98705.97;10231094;23;20216;-81
2022/11/19 10:57:28;;;;;;;;;;;;;;;9.15;87.69;98700.78;10230565;23;20011;-83
2022/11/19 11:01:37;;;;;;;;;;;;;;;9.13;86.97;98692.19;10223762;23;20013;-84
2022/11/19 11:06:05;;;;;;;;;;;;;;;9.12;87.20;98700.81;10234658;23;19936;-82
2022/11/19 11:10:23;;;;;;;;;;;;;;;9.06;85.76;98690.53;10207300;23;19947;-82
2022/11/19 11:18:46;;;;;;;;;;;;;;;9.32;86.15;98685.06;10226922;23;20055;-84
2022/11/19 11:22:49;;;;;;;;;;;;;;;9.40;85.97;98685.88;10233665;23;19924;-83
2022/11/19 11:27:11;;;;;;;;;;;;;;;9.38;84.88;98687.63;10207726;23;19989;-79
2022/11/19 11:31:26;;;;;;;;;;;;;;;9.34;84.83;98686.81;10200682;23;19937;-83
2022/11/19 11:35:29;;;;;;;;;;;;;;;9.30;83.91;98684.25;10208323;23;20010;-80
2022/11/19 11:39:33;;;;;;;;;;;;;;;9.34;84.41;98683.34;10236150;23;19994;-86
2022/11/19 11:43:38;;;;;;;;;;;;;;;9.34;83.35;98689.41;10240233;23;19924;-82
2022/11/19 11:47:39;;;;;;;;;;;;;;;9.37;83.64;98696.28;10226898;23;19924;-82
2022/11/19 11:51:42;;;;;;;;;;;;;;;9.36;83.90;98686.78;10234589;23;20326;-82
2022/11/19 11:55:43;;;;;;;;;;;;;;;9.22;82.73;98686.91;10207990;23;19952;-81
2022/11/19 11:59:46;;;;;;;;;;;;;;;9.27;83.77;98682.53;10210716;23;19928;-85
2022/11/19 12:03:52;;;;;;;;;;;;;;;9.31;84.29;98681.63;10236977;23;19924;-81
2022/11/19 12:08:02;;;;;;;;;;;;;;;9.32;84.19;98679.91;10235344;23;19920;-81
2022/11/19 12:12:42;;;;;;;;;;;;;;;9.27;83.26;98685.13;10208381;23;19936;-81
2022/11/19 12:16:53;;;;;;;;;;;;;;;9.23;83.37;98670.50;10123642;23;19924;-82
2022/11/19 12:20:59;;;;;;;;;;;;;;;9.29;84.45;98674.75;10185485;23;19931;-82
2022/11/19 12:25:10;;;;;;;;;;;;;;;9.27;83.70;98676.50;10236779;23;19935;-81
2022/11/19 12:29:16;;;;;;;;;;;;;;;9.24;82.31;98680.00;10238143;23;19920;-82
2022/11/19 12:33:19;;;;;;;;;;;;;;;9.26;83.42;98678.22;10238119;23;19924;-84
2022/11/19 12:37:24;;;;;;;;;;;;;;;9.20;82.38;98675.72;10261534;23;20026;-83
2022/11/19 12:41:49;;;;;;;;;;;;;;;9.22;82.72;98673.97;10236091;23;20422;-81
2022/11/19 12:46:02;;;;;;;;;;;;;;;9.28;83.78;98670.44;10173882;23;20219;-82
2022/11/19 12:50:23;;;;;;;;;;;;;;;9.28;84.09;98676.47;10259113;23;20002;-83
2022/11/19 12:54:24;;;;;;;;;;;;;;;9.31;83.81;98673.00;10235370;23;19934;-82
2022/11/19 12:58:49;;;;;;;;;;;;;;;9.36;84.16;98672.09;10286177;23;20486;-83
2022/11/19 13:03:10;;;;;;;;;;;;;;;9.35;83.02;98678.16;10251599;23;20502;-84
2022/11/19 13:07:21;;;;;;;;;;;;;;;9.34;82.54;98684.22;10233371;23;19998;-82
2022/11/19 13:11:35;;;;;;;;;;;;;;;9.36;82.63;98682.47;10255678;23;19924;-82
2022/11/19 13:15:41;;;;;;;;;;;;;;;9.35;83.52;98690.25;10273509;23;19924;-82
2022/11/19 13:19:45;;;;;;;;;;;;;;;9.35;84.81;98688.50;10256018;23;19935;-82
2022/11/19 13:23:47;;;;;;;;;;;;;;;9.33;83.47;98692.81;10256723;23;19977;-82
2022/11/19 13:27:50;;;;;;;;;;;;;;;9.33;83.73;98686.78;10234112;23;20374;-84
2022/11/19 13:32:00;;;;;;;;;;;;;;;9.31;84.36;98692.00;10253540;23;19924;-83
2022/11/19 13:36:07;;;;;;;;;;;;;;;9.32;83.55;98698.88;10256300;23;20334;-82
2022/11/19 13:40:18;;;;;;;;;;;;;;;9.33;84.00;98698.00;10257116;23;19962;-82
2022/11/19 13:44:39;;;;;;;;;;;;;;;9.38;83.70;98695.41;10256377;23;19919;-82
2022/11/19 13:48:47;;;;;;;;;;;;;;;9.40;83.43;98693.63;10272728;23;19924;-84
2022/11/19 13:52:56;;;;;;;;;;;;;;;9.41;82.24;98691.91;10233090;23;20031;-85
2022/11/19 13:56:58;;;;;;;;;;;;;;;9.42;82.11;98694.47;10259746;23;19924;-83
2022/11/19 14:01:02;;;;;;;;;;;;;;;9.45;83.19;98702.22;10229340;23;19924;-83
2022/11/19 14:05:22;;;;;;;;;;;;;;;9.46;83.37;98700.47;10260533;23;20107;-82
2022/11/19 14:09:42;;;;;;;;;;;;;;;9.50;83.99;98702.16;10257323;23;19920;-83
2022/11/19 14:14:02;;;;;;;;;;;;;;;9.53;83.50;98700.41;10231357;23;19934;-82
2022/11/19 14:27:17;;;;;;;;;;;;;;;9.47;82.29;98695.28;10256212;23;19923;-82
2022/11/19 14:31:19;;;;;;;;;;;;;;;9.51;82.45;98703.88;10276956;23;19924;-83
2022/11/19 14:35:24;;;;;;;;;;;;;;;9.56;83.56;98697.78;10234081;23;20030;-86
2022/11/19 14:39:27;;;;;;;;;;;;;;;9.60;83.08;98699.44;10233779;23;19931;-84
2022/11/19 14:47:49;;;;;;;;;;;;;;;9.62;83.45;98696.84;10276949;23;19928;-84
2022/11/19 14:51:55;;;;;;;;;;;;;;;9.60;82.96;98699.44;10233410;23;19935;-83
2022/11/19 14:55:58;;;;;;;;;;;;;;;9.54;81.73;98696.94;10257990;23;20346;-83
2022/11/19 15:00:06;;;;;;;;;;;;;;;9.52;81.87;98700.44;10233274;23;19972;-81
2022/11/19 15:04:10;;;;;;;;;;;;;;;9.49;82.72;98705.63;10280900;23;19959;-82
2022/11/19 15:08:15;;;;;;;;;;;;;;;9.43;81.04;98713.47;10253099;23;19925;-82
2022/11/19 15:12:20;;;;;;;;;;;;;;;9.38;80.95;98709.22;10255964;23;20021;-82
2022/11/19 15:16:23;;;;;;;;;;;;;;;9.35;80.79;98717.00;10223668;23;19924;-82
2022/11/19 15:20:25;;;;;;;;;;;;;;;9.32;81.16;98722.19;10282557;23;20684;-82
2022/11/19 15:24:33;;;;;;;;;;;;;;;9.27;81.60;98728.31;10255743;23;19954;-81
2022/11/19 15:28:35;;;;;;;;;;;;;;;9.23;82.66;98727.50;10254456;23;19924;-81
2022/11/19 15:32:42;;;;;;;;;;;;;;;9.20;83.56;98724.06;10227922;23;19970;-81
2022/11/19 15:36:45;;;;;;;;;;;;;;;9.14;83.23;98724.13;10254731;23;19943;-81
2022/11/19 15:40:48;;;;;;;;;;;;;;;9.09;83.22;98721.56;10252185;23;20349;-81
2022/11/19 15:44:58;;;;;;;;;;;;;;;9.05;83.68;98727.66;10251983;23;19928;-79
2022/11/19 15:49:11;;;;;;;;;;;;;;;8.96;83.97;98726.00;10269596;23;19924;-81
2022/11/19 15:53:16;;;;;;;;;;;;;;;8.94;84.35;98721.72;10256161;23;19924;-81
2022/11/19 15:57:17;;;;;;;;;;;;;;;8.91;84.18;98729.50;10281498;23;20002;-80
2022/11/19 16:01:20;;;;;;;;;;;;;;;8.83;84.32;98731.31;10225728;23;20482;-81
2022/11/19 16:05:22;;;;;;;;;;;;;;;8.77;84.64;98733.06;10283836;23;20354;-81
2022/11/19 16:09:24;;;;;;;;;;;;;;;8.75;85.66;98737.38;10256520;23;20300;-80
2022/11/19 16:17:46;;;;;;;;;;;;;;;8.69;85.32;98734.00;10248518;23;20047;-80
2022/11/19 16:22:02;;;;;;;;;;;;;;;8.67;85.70;98739.19;10232228;23;20692;-80
2022/11/19 16:26:03;;;;;;;;;;;;;;;8.64;85.92;98743.53;10230919;23;19923;-80
2022/11/19 16:30:05;;;;;;;;;;;;;;;8.60;86.75;98744.41;10249230;23;19935;-81
2022/11/19 16:34:11;;;;;;;;;;;;;;;8.58;87.39;98743.56;10258702;23;19924;-80
2022/11/19 16:38:14;;;;;;;;;;;;;;;8.58;87.47;98744.41;10258003;23;19973;-80
2022/11/19 16:42:18;;;;;;;;;;;;;;;8.57;88.10;98747.88;10254267;23;19927;-81
2022/11/19 16:46:21;;;;;;;;;;;;;;;8.54;87.53;98741.88;10224264;23;19923;-81
2022/11/19 16:50:23;;;;;;;;;;;;;;;8.51;87.22;98747.06;10258335;23;19924;-81
2022/11/19 16:54:44;;;;;;;;;;;;;;;8.49;87.57;98749.66;10283206;23;19951;-80
2022/11/19 16:58:45;;;;;;;;;;;;;;;8.49;87.07;98754.84;10254840;23;19924;-81
2022/11/19 17:02:48;;;;;;;;;;;;;;;8.48;86.83;98753.97;10230075;23;20006;-81
2022/11/19 17:06:49;;;;;;;;;;;;;;;8.45;86.87;98755.75;10256985;23;19974;-80
2022/11/19 17:12:16;;;;;;;;;;;;;;;8.44;87.70;98759.19;10231192;23;19923;-81
2022/11/19 17:15:33;;;;;;;;;;;;;;;8.42;87.89;98759.19;10279564;23;19923;-80
2022/11/19 17:19:35;;;;;;;;;;;;;;;8.42;88.71;98766.06;10229950;23;19993;-81
2022/11/19 17:23:45;;;;;;;;;;;;;;;8.41;88.47;98765.22;10256599;23;19927;-80
2022/11/19 17:27:57;;;;;;;;;;;;;;;8.37;88.61;98766.13;10281340;23;19932;-81
2022/11/19 17:32:02;;;;;;;;;;;;;;;8.37;88.39;98775.59;10221506;23;19990;-81
2022/11/19 17:36:11;;;;;;;;;;;;;;;8.35;88.16;98769.56;10278801;23;19923;-81
2022/11/19 17:40:12;;;;;;;;;;;;;;;8.33;88.70;98769.56;10253723;23;19992;-81
2022/11/19 17:44:39;;;;;;;;;;;;;;;8.32;89.13;98775.59;10255726;23;19923;-81
2022/11/19 17:48:41;;;;;;;;;;;;;;;8.30;89.20;98772.16;10221099;23;19919;-80
2022/11/19 17:52:43;;;;;;;;;;;;;;;8.30;89.01;98777.34;10228266;23;19924;-81
2022/11/19 17:56:44;;;;;;;;;;;;;;;8.31;89.88;98779.06;10253757;23;20600;-80
2022/11/19 18:00:46;;;;;;;;;;;;;;;8.29;88.98;98785.09;10231731;23;19953;-81
2022/11/19 18:04:47;;;;;;;;;;;;;;;8.28;88.83;98792.00;10251550;23;20186;-80
2022/11/19 18:08:48;;;;;;;;;;;;;;;8.28;89.18;98789.41;10227067;23;20189;-79
2022/11/19 18:12:50;;;;;;;;;;;;;;;8.30;89.42;98789.41;10252442;23;19924;-79
2022/11/19 18:16:51;;;;;;;;;;;;;;;8.32;88.56;98785.09;10244761;23;19944;-79
2022/11/19 18:20:52;;;;;;;;;;;;;;;8.30;88.86;98784.25;10251819;23;19959;-79
2022/11/19 18:25:09;;;;;;;;;;;;;;;8.29;88.91;98777.34;10258182;23;20015;-80
2022/11/19 18:29:11;;;;;;;;;;;;;;;8.26;89.31;98777.34;10280113;23;20338;-80
2022/11/19 18:33:12;;;;;;;;;;;;;;;8.20;89.15;98780.81;10250439;23;20412;-80
2022/11/19 18:37:14;;;;;;;;;;;;;;;8.23;89.32;98783.38;10251193;23;19934;-80
2022/11/19 18:41:17;;;;;;;;;;;;;;;8.21;89.70;98776.50;10251204;23;19932;-79
2022/11/19 18:45:19;;;;;;;;;;;;;;;8.21;90.26;98790.31;10220034;23;19924;-79
2022/11/19 18:49:20;;;;;;;;;;;;;;;8.17;89.75;98784.28;10224799;23;19919;-79
2022/11/19 18:53:22;;;;;;;;;;;;;;;8.19;90.43;98785.13;10250448;23;20033;-79
2022/11/19 18:57:23;;;;;;;;;;;;;;;8.15;90.55;98790.34;10250720;23;20538;-80
2022/11/19 19:01:25;;;;;;;;;;;;;;;8.16;90.54;98792.91;10223513;23;19931;-80
2022/11/19 19:05:26;;;;;;;;;;;;;;;8.10;90.37;98795.53;10252635;23;19923;-80
2022/11/19 19:09:28;;;;;;;;;;;;;;;8.08;90.39;98794.69;10245990;23;20306;-80
2022/11/19 19:13:29;;;;;;;;;;;;;;;8.07;89.97;98805.00;10275423;23;19920;-80
2022/11/19 19:17:31;;;;;;;;;;;;;;;8.07;90.03;98812.75;10270106;23;19936;-79
2022/11/19 19:21:32;;;;;;;;;;;;;;;8.08;90.74;98807.63;10226730;23;20342;-79
2022/11/19 19:25:34;;;;;;;;;;;;;;;8.10;90.54;98807.59;10249259;23;19927;-79
2022/11/19 19:29:36;;;;;;;;;;;;;;;8.13;91.40;98807.59;10252894;23;19934;-79
2022/11/19 19:33:37;;;;;;;;;;;;;;;8.14;91.01;98811.91;10247586;23;19924;-78
2022/11/19 19:37:41;;;;;;;;;;;;;;;8.13;91.24;98805.88;10259154;23;19923;-78
2022/11/19 19:41:42;;;;;;;;;;;;;;;8.08;90.37;98804.19;10227524;23;19924;-78
2022/11/19 19:45:44;;;;;;;;;;;;;;;8.07;90.71;98799.84;10220786;23;20004;-78
2022/11/19 19:49:48;;;;;;;;;;;;;;;8.08;90.47;98805.03;10259758;23;19923;-79
2022/11/19 19:53:51;;;;;;;;;;;;;;;8.06;89.99;98811.91;10281504;23;19934;-78
2022/11/19 19:57:56;;;;;;;;;;;;;;;8.05;90.17;98819.66;10280556;23;19931;-78
2022/11/19 20:01:57;;;;;;;;;;;;;;;8.03;90.53;98819.69;10271277;23;19928;-78
2022/11/19 20:06:00;;;;;;;;;;;;;;;8.00;90.36;98814.53;10251229;23;20288;-78
2022/11/19 20:10:01;;;;;;;;;;;;;;;8.00;90.00;98824.88;10279924;23;20361;-78
2022/11/19 20:14:03;;;;;;;;;;;;;;;8.00;90.07;98834.34;10253472;23;20442;-78
2022/11/19 20:18:05;;;;;;;;;;;;;;;8.05;90.64;98832.59;10219605;23;19924;-78
2022/11/19 20:22:06;;;;;;;;;;;;;;;8.03;90.12;98840.38;10278765;23;19931;-78
2022/11/19 20:26:15;;;;;;;;;;;;;;;8.02;89.75;98837.78;10255650;23;19928;-78
2022/11/19 20:30:17;;;;;;;;;;;;;;;8.02;90.13;98833.47;10246294;23;19931;-78
2022/11/19 20:34:18;;;;;;;;;;;;;;;8.04;89.54;98839.50;10227553;23;20694;-79
2022/11/19 20:38:19;;;;;;;;;;;;;;;8.01;89.54;98846.41;10229345;23;19924;-78
2022/11/19 20:46:41;;;;;;;;;;;;;;;7.97;88.57;98847.28;10243560;23;19924;-79
2022/11/19 20:50:43;;;;;;;;;;;;;;;7.96;88.34;98846.44;10223114;23;19934;-79
2022/11/19 20:54:44;;;;;;;;;;;;;;;8.01;88.61;98846.41;10257858;23;19924;-78
2022/11/19 20:58:45;;;;;;;;;;;;;;;7.98;88.81;98843.84;10253124;23;19928;-79
2022/11/19 21:02:47;;;;;;;;;;;;;;;7.96;88.85;98841.25;10221035;23;19958;-79
2022/11/19 21:06:49;;;;;;;;;;;;;;;7.94;88.44;98855.91;10228581;23;19959;-79
2022/11/19 21:10:58;;;;;;;;;;;;;;;7.95;88.55;98852.47;10231232;23;19994;-79
2022/11/19 21:15:00;;;;;;;;;;;;;;;7.94;88.93;98855.06;10230477;23;19935;-79
2022/11/19 21:19:04;;;;;;;;;;;;;;;7.93;89.01;98855.91;10255783;23;19924;-78
2022/11/19 21:23:06;;;;;;;;;;;;;;;7.91;88.71;98853.34;10227948;23;20007;-79
2022/11/19 21:27:08;;;;;;;;;;;;;;;7.89;89.13;98850.72;10281371;23;19923;-79
2022/11/19 21:31:09;;;;;;;;;;;;;;;7.88;89.30;98850.75;10222880;23;19924;-79
2022/11/19 21:35:14;;;;;;;;;;;;;;;7.88;89.33;98850.75;10250739;23;19935;-79
2022/11/19 21:39:16;;;;;;;;;;;;;;;7.86;89.86;98844.72;10251200;23;20022;-79
2022/11/19 21:43:19;;;;;;;;;;;;;;;7.85;89.77;98840.41;10250532;23;20032;-79
2022/11/19 21:47:20;;;;;;;;;;;;;;;7.86;89.49;98844.72;10243128;23;19928;-79
2022/11/19 21:51:22;;;;;;;;;;;;;;;7.85;89.52;98851.59;10246753;23;19923;-79
2022/11/19 21:55:25;;;;;;;;;;;;;;;7.81;89.23;98857.66;10222099;23;20756;-79
2022/11/19 21:59:26;;;;;;;;;;;;;;;7.84;89.74;98862.81;10250526;23;19935;-78